Time;durP1;ratioP1;P1;durP2;ratioP2;P2;SDS_P1;SDS_P2;PMS_P1;PMS_P2;Temp;Humidity;BMP_temperature;BMP_pressure;BME280_temperature;BME280_humidity;BME280_pressure;Samples;Min_cycle;Max_cycle;Signal;HPM_P1;HPM_P2
2023/05/07 00:01:39;;;;;;;14.73;12.00;;;8.80;99.90;;;;;;5026680;28;20210;-68
2023/05/07 00:04:05;;;;;;;15.93;11.17;;;8.80;99.90;;;;;;5022966;28;20184;-67
2023/05/07 00:06:32;;;;;;;13.57;12.27;;;8.80;99.90;;;;;;5021083;28;20435;-68
2023/05/07 00:08:59;;;;;;;11.60;10.40;;;8.80;99.90;;;;;;5023251;28;20272;-69
2023/05/07 00:11:25;;;;;;;12.60;11.00;;;8.80;99.90;;;;;;5028611;28;20933;-69
2023/05/07 00:13:51;;;;;;;13.33;10.33;;;8.80;99.90;;;;;;5023401;28;20414;-68
2023/05/07 00:16:16;;;;;;;13.37;11.03;;;8.80;99.90;;;;;;5022256;28;20585;-69
2023/05/07 00:18:42;;;;;;;13.43;11.10;;;8.80;99.90;;;;;;5023130;28;20177;-68
2023/05/07 00:21:08;;;;;;;13.90;11.10;;;8.80;99.90;;;;;;5022579;28;20183;-69
2023/05/07 00:23:33;;;;;;;12.40;11.00;;;8.80;99.90;;;;;;5023566;28;20662;-68
2023/05/07 00:25:59;;;;;;;16.93;11.70;;;8.90;99.90;;;;;;5022564;28;20674;-67
2023/05/07 00:28:24;;;;;;;13.00;11.30;;;8.80;99.90;;;;;;5021564;28;20184;-69
2023/05/07 00:30:50;;;;;;;12.97;10.97;;;8.90;99.90;;;;;;5026399;28;20203;-69
2023/05/07 00:33:15;;;;;;;11.60;10.53;;;8.90;99.90;;;;;;5022586;28;20214;-68
2023/05/07 00:35:42;;;;;;;16.97;10.80;;;8.90;99.90;;;;;;5022874;28;20304;-68
2023/05/07 00:38:08;;;;;;;11.53;10.10;;;8.90;99.90;;;;;;5022301;28;20172;-69
2023/05/07 00:40:33;;;;;;;19.90;12.47;;;8.90;99.90;;;;;;5021531;28;20452;-68
2023/05/07 00:42:59;;;;;;;13.93;12.57;;;8.80;99.90;;;;;;5022912;28;20241;-69
2023/05/07 00:45:28;;;;;;;12.93;9.77;;;8.80;99.90;;;;;;5021778;28;20217;-69
2023/05/07 00:47:55;;;;;;;15.40;11.57;;;8.80;99.90;;;;;;5023026;28;20425;-69
2023/05/07 00:50:22;;;;;;;11.87;10.77;;;8.70;99.90;;;;;;5022770;28;20421;-69
2023/05/07 00:52:48;;;;;;;12.63;11.10;;;8.70;99.90;;;;;;5023102;28;20814;-69
2023/05/07 00:55:14;;;;;;;13.23;10.07;;;8.70;99.90;;;;;;5021177;28;20406;-69
2023/05/07 00:57:41;;;;;;;14.13;11.50;;;8.70;99.90;;;;;;5011969;28;20423;-68
2023/05/07 01:00:12;;;;;;;12.53;11.23;;;8.70;99.90;;;;;;5022590;28;20464;-68
2023/05/07 01:02:41;;;;;;;11.53;10.40;;;8.80;99.90;;;;;;5019282;28;20431;-69
2023/05/07 01:05:11;;;;;;;16.43;11.03;;;8.80;99.90;;;;;;5024876;28;20419;-69
2023/05/07 01:07:38;;;;;;;13.37;10.80;;;8.80;99.90;;;;;;5019237;28;20430;-68
2023/05/07 01:10:06;;;;;;;13.57;11.90;;;8.70;99.90;;;;;;5013657;28;20424;-68
2023/05/07 01:12:32;;;;;;;11.97;10.73;;;8.70;99.90;;;;;;5025777;28;20592;-67
2023/05/07 01:14:58;;;;;;;11.67;10.43;;;8.80;99.90;;;;;;5024891;28;20461;-68
2023/05/07 01:17:23;;;;;;;13.03;11.20;;;8.70;99.90;;;;;;5009697;28;20504;-69
2023/05/07 01:19:50;;;;;;;10.90;9.80;;;8.80;99.90;;;;;;5022685;28;20498;-70
2023/05/07 01:22:18;;;;;;;13.70;11.60;;;8.70;99.90;;;;;;5028325;28;20177;-67
2023/05/07 01:24:44;;;;;;;13.30;9.63;;;8.80;99.90;;;;;;5022600;28;20426;-71
2023/05/07 01:27:09;;;;;;;11.60;10.47;;;8.80;99.90;;;;;;5029284;28;20434;-68
2023/05/07 01:29:35;;;;;;;12.07;10.87;;;8.80;99.90;;;;;;5022444;28;20675;-68
2023/05/07 01:32:02;;;;;;;12.43;10.00;;;8.80;99.90;;;;;;5030012;28;20221;-68
2023/05/07 01:34:32;;;;;;;12.90;9.90;;;8.80;99.90;;;;;;5025167;28;20181;-69
2023/05/07 01:36:59;;;;;;;12.60;11.10;;;8.80;99.90;;;;;;5022178;28;20426;-68
2023/05/07 01:39:26;;;;;;;13.50;10.17;;;8.80;99.90;;;;;;5028561;28;20828;-68
2023/05/07 01:41:54;;;;;;;13.20;9.97;;;8.80;99.90;;;;;;5022276;28;20976;-69
2023/05/07 01:44:20;;;;;;;12.37;11.10;;;8.80;99.90;;;;;;5032401;28;20513;-67
2023/05/07 01:46:47;;;;;;;11.87;10.67;;;8.80;99.90;;;;;;5028100;28;20493;-68
2023/05/07 01:49:12;;;;;;;12.20;10.47;;;8.80;99.90;;;;;;5029944;28;20181;-68
2023/05/07 01:51:39;;;;;;;12.33;9.83;;;8.80;99.90;;;;;;5029108;28;20559;-68
2023/05/07 01:54:06;;;;;;;10.87;9.60;;;8.80;99.90;;;;;;5022023;28;20495;-68
2023/05/07 01:56:32;;;;;;;11.00;9.10;;;8.80;99.90;;;;;;5028336;28;20441;-68
2023/05/07 01:58:57;;;;;;;10.97;9.87;;;8.80;99.90;;;;;;5031604;28;20421;-68
2023/05/07 02:01:23;;;;;;;11.97;9.77;;;8.80;99.90;;;;;;5030428;28;20735;-68
2023/05/07 02:03:49;;;;;;;11.00;9.90;;;8.70;99.90;;;;;;5025384;28;20177;-69
2023/05/07 02:06:15;;;;;;;14.70;10.30;;;8.70;99.90;;;;;;5025138;28;20205;-69
2023/05/07 02:08:40;;;;;;;12.80;10.63;;;8.80;99.90;;;;;;5028243;28;20420;-69
2023/05/07 02:11:06;;;;;;;17.97;10.80;;;8.80;99.90;;;;;;5022005;28;20782;-70
2023/05/07 02:13:34;;;;;;;14.73;10.47;;;8.80;99.90;;;;;;5028267;28;20315;-69
2023/05/07 02:16:00;;;;;;;10.13;9.03;;;8.80;99.90;;;;;;5021441;28;20243;-70
2023/05/07 02:18:25;;;;;;;14.73;10.10;;;8.80;99.90;;;;;;5024364;28;20494;-69
2023/05/07 02:20:51;;;;;;;13.10;10.00;;;8.80;99.90;;;;;;5029780;28;20274;-69
2023/05/07 02:23:16;;;;;;;11.07;9.10;;;8.80;99.90;;;;;;5031980;28;20588;-69
2023/05/07 02:25:42;;;;;;;11.00;9.37;;;8.80;99.90;;;;;;5026484;28;20207;-70
2023/05/07 02:28:07;;;;;;;12.10;9.97;;;8.80;99.90;;;;;;5028083;28;20262;-69
2023/05/07 02:30:33;;;;;;;12.77;9.43;;;8.80;99.90;;;;;;5028552;28;20549;-70
2023/05/07 02:32:59;;;;;;;13.47;8.93;;;8.80;99.90;;;;;;5021419;28;20258;-69
2023/05/07 02:35:25;;;;;;;11.63;9.87;;;8.80;99.90;;;;;;5024357;28;20199;-69
2023/05/07 02:37:51;;;;;;;11.37;9.80;;;8.80;99.90;;;;;;5026636;28;20631;-68
2023/05/07 02:40:17;;;;;;;12.27;10.23;;;8.80;99.90;;;;;;5030199;28;20406;-68
2023/05/07 02:42:42;;;;;;;12.17;10.97;;;8.80;99.90;;;;;;5027745;28;20192;-69
2023/05/07 02:45:09;;;;;;;13.87;9.80;;;8.80;99.90;;;;;;5021883;28;20260;-69
2023/05/07 02:47:34;;;;;;;13.87;9.53;;;8.80;99.90;;;;;;5011690;28;20177;-69
2023/05/07 02:50:00;;;;;;;10.80;9.27;;;8.80;99.90;;;;;;5024025;28;20419;-68
2023/05/07 02:52:26;;;;;;;10.33;9.30;;;8.70;99.90;;;;;;5031763;28;20199;-71
2023/05/07 02:54:51;;;;;;;19.70;10.03;;;8.70;99.90;;;;;;5024316;28;20205;-69
2023/05/07 02:57:17;;;;;;;10.87;9.37;;;8.70;99.90;;;;;;5022442;28;20959;-69
2023/05/07 02:59:43;;;;;;;10.77;9.70;;;8.70;99.90;;;;;;5026949;28;20894;-69
2023/05/07 03:02:09;;;;;;;11.73;10.30;;;8.80;99.90;;;;;;5024373;28;20635;-69
2023/05/07 03:04:34;;;;;;;9.20;8.17;;;8.70;99.90;;;;;;5027775;28;20443;-68
2023/05/07 03:07:00;;;;;;;11.50;9.27;;;8.70;99.90;;;;;;5025485;28;20199;-68
2023/05/07 03:09:25;;;;;;;12.00;8.87;;;8.70;99.90;;;;;;5024022;28;20199;-69
2023/05/07 03:11:51;;;;;;;10.40;8.93;;;8.70;99.90;;;;;;5008010;28;20191;-69
2023/05/07 03:14:17;;;;;;;12.57;9.70;;;8.70;99.90;;;;;;5022345;28;20173;-70
2023/05/07 03:16:43;;;;;;;8.27;7.43;;;8.80;99.90;;;;;;5025671;28;20968;-69
2023/05/07 03:19:08;;;;;;;9.47;8.53;;;8.80;99.90;;;;;;5021892;28;20645;-69
2023/05/07 03:21:34;;;;;;;12.00;9.50;;;8.80;99.90;;;;;;5024182;28;20262;-68
2023/05/07 03:24:00;;;;;;;10.70;9.70;;;8.80;99.90;;;;;;5023971;28;20189;-68
2023/05/07 03:26:26;;;;;;;9.33;8.33;;;8.80;99.90;;;;;;5023715;28;20696;-69
2023/05/07 03:28:51;;;;;;;9.67;8.47;;;8.70;99.90;;;;;;5024076;28;20454;-69
2023/05/07 03:31:17;;;;;;;12.47;9.17;;;8.70;99.90;;;;;;5023231;28;20204;-69
2023/05/07 03:33:55;;;;;;;9.70;8.67;;;8.70;99.90;;;;;;5029294;28;20595;-69
2023/05/07 03:36:21;;;;;;;9.70;8.70;;;8.70;99.90;;;;;;5030678;28;20437;-68
2023/05/07 03:38:47;;;;;;;8.97;8.00;;;8.80;99.90;;;;;;5027591;28;20407;-68
2023/05/07 03:41:13;;;;;;;10.60;8.43;;;8.70;99.90;;;;;;5022239;28;20797;-69
2023/05/07 03:43:39;;;;;;;10.50;9.17;;;8.70;99.90;;;;;;5023786;28;20511;-69
2023/05/07 03:46:04;;;;;;;11.07;9.10;;;8.70;99.90;;;;;;5023067;28;20513;-67
2023/05/07 03:48:30;;;;;;;10.00;9.00;;;8.70;99.90;;;;;;5023545;28;20237;-68
2023/05/07 03:50:57;;;;;;;9.97;8.23;;;8.70;99.90;;;;;;5023357;28;20196;-69
2023/05/07 03:53:22;;;;;;;11.87;9.40;;;8.70;99.90;;;;;;5029175;28;20169;-68
2023/05/07 03:55:48;;;;;;;8.93;7.77;;;8.70;99.90;;;;;;5027587;28;20541;-68
2023/05/07 03:58:14;;;;;;;10.10;8.90;;;8.60;99.90;;;;;;5028835;28;20185;-69
2023/05/07 04:00:40;;;;;;;10.03;7.90;;;8.60;99.90;;;;;;5026907;28;20177;-70
2023/05/07 04:03:06;;;;;;;12.30;9.10;;;8.60;99.90;;;;;;5028866;28;20183;-68
2023/05/07 04:05:31;;;;;;;8.13;7.30;;;8.60;99.90;;;;;;5022958;28;20439;-68
2023/05/07 04:08:00;;;;;;;8.90;7.70;;;8.60;99.90;;;;;;5023094;28;20178;-69
2023/05/07 04:10:26;;;;;;;10.93;8.80;;;8.60;99.90;;;;;;5022944;28;20173;-68
2023/05/07 04:12:51;;;;;;;12.37;9.33;;;8.60;99.90;;;;;;5023465;28;20458;-68
2023/05/07 04:15:17;;;;;;;9.83;8.80;;;8.60;99.90;;;;;;5021640;28;20252;-69
2023/05/07 04:17:43;;;;;;;9.47;8.47;;;8.60;99.90;;;;;;5020669;28;20172;-69
2023/05/07 04:20:15;;;;;;;11.33;8.43;;;8.60;99.90;;;;;;5026018;28;20172;-69
2023/05/07 04:22:41;;;;;;;9.97;8.17;;;8.60;99.90;;;;;;5028322;28;20255;-69
2023/05/07 04:25:08;;;;;;;9.20;7.97;;;8.60;99.90;;;;;;5029557;28;20427;-69
2023/05/07 04:27:34;;;;;;;9.00;7.70;;;8.60;99.90;;;;;;5021847;28;20193;-68
2023/05/07 04:30:00;;;;;;;9.47;7.37;;;8.60;99.90;;;;;;5030979;28;20717;-68
2023/05/07 04:32:26;;;;;;;9.73;7.87;;;8.60;99.90;;;;;;5020048;28;20206;-69
2023/05/07 04:34:52;;;;;;;8.57;7.67;;;8.60;99.90;;;;;;5019596;28;20169;-70
2023/05/07 04:37:17;;;;;;;11.90;7.37;;;8.70;99.90;;;;;;5027430;28;20184;-69
2023/05/07 04:39:43;;;;;;;9.67;7.70;;;8.70;99.90;;;;;;5023736;28;20255;-69
2023/05/07 04:42:08;;;;;;;8.40;7.37;;;8.70;99.90;;;;;;5029438;28;20307;-69
2023/05/07 04:44:35;;;;;;;8.00;7.27;;;8.70;99.90;;;;;;5021652;28;20191;-69
2023/05/07 04:47:00;;;;;;;6.70;6.10;;;8.70;99.90;;;;;;5030611;28;20203;-69
2023/05/07 04:49:26;;;;;;;8.93;7.53;;;8.70;99.90;;;;;;5026590;28;21007;-69
2023/05/07 04:51:52;;;;;;;8.40;6.60;;;8.70;99.90;;;;;;5024249;28;20203;-70
2023/05/07 04:54:17;;;;;;;8.40;7.10;;;8.80;99.90;;;;;;5031240;28;20267;-69
2023/05/07 04:56:43;;;;;;;6.90;6.00;;;8.80;99.90;;;;;;5030025;28;20579;-69
2023/05/07 04:59:08;;;;;;;10.43;6.47;;;8.80;99.90;;;;;;5032955;28;20179;-69
2023/05/07 05:01:34;;;;;;;7.33;6.57;;;8.80;99.90;;;;;;5027600;28;20193;-69
2023/05/07 05:04:00;;;;;;;6.50;5.60;;;8.80;99.90;;;;;;5037169;28;20740;-70
2023/05/07 05:06:26;;;;;;;7.20;6.10;;;8.90;99.90;;;;;;5027723;28;20443;-68
2023/05/07 05:08:51;;;;;;;7.37;6.67;;;8.90;99.90;;;;;;5033575;28;20614;-69
2023/05/07 05:11:17;;;;;;;6.50;5.80;;;8.90;99.90;;;;;;5034929;28;20203;-68
2023/05/07 05:13:43;;;;;;;9.90;7.23;;;9.00;99.90;;;;;;5022887;28;20180;-69
2023/05/07 05:16:08;;;;;;;6.37;5.77;;;9.00;99.90;;;;;;5026200;28;20646;-69
2023/05/07 05:18:34;;;;;;;6.93;5.53;;;9.10;99.90;;;;;;5029799;28;20203;-68
2023/05/07 05:21:00;;;;;;;7.37;6.40;;;9.30;99.90;;;;;;5028679;28;20268;-69
2023/05/07 05:23:26;;;;;;;9.50;6.17;;;9.40;99.90;;;;;;5026417;28;20455;-69
2023/05/07 05:25:57;;;;;;;10.00;6.80;;;9.50;99.90;;;;;;5026522;28;20207;-68
2023/05/07 05:28:23;;;;;;;6.87;6.03;;;9.50;99.90;;;;;;5025307;28;20445;-69
2023/05/07 05:30:49;;;;;;;7.03;6.33;;;9.50;99.90;;;;;;5027782;28;20461;-68
2023/05/07 05:33:14;;;;;;;7.20;5.40;;;9.50;99.90;;;;;;5023927;28;20437;-68
2023/05/07 05:35:40;;;;;;;9.27;6.23;;;9.60;99.90;;;;;;5025741;28;20325;-68
2023/05/07 05:38:06;;;;;;;9.43;6.90;;;9.50;99.90;;;;;;5010433;28;20259;-68
2023/05/07 05:40:32;;;;;;;7.40;6.67;;;9.60;99.90;;;;;;5032943;28;20201;-68
2023/05/07 05:42:57;;;;;;;8.30;6.33;;;9.60;99.90;;;;;;5027146;28;20187;-68
2023/05/07 05:45:23;;;;;;;7.30;6.50;;;9.70;99.90;;;;;;5030854;28;20975;-68
2023/05/07 05:47:48;;;;;;;7.33;6.30;;;9.70;99.90;;;;;;5027812;28;20184;-68
2023/05/07 05:50:14;;;;;;;8.00;7.20;;;9.70;99.90;;;;;;5023673;28;20183;-68
2023/05/07 05:52:40;;;;;;;8.27;5.63;;;9.80;99.90;;;;;;5025712;28;20207;-69
2023/05/07 05:55:06;;;;;;;9.33;7.50;;;10.00;99.90;;;;;;5028030;28;20187;-69
2023/05/07 05:57:32;;;;;;;7.60;6.03;;;10.30;99.90;;;;;;5025659;28;20600;-69
2023/05/07 05:59:58;;;;;;;6.53;5.70;;;10.40;99.90;;;;;;5027662;28;20494;-69
2023/05/07 06:02:23;;;;;;;7.40;5.90;;;10.30;99.90;;;;;;5025760;28;20287;-69
2023/05/07 06:04:49;;;;;;;5.43;4.93;;;10.70;99.90;;;;;;5027790;28;20186;-68
2023/05/07 06:07:14;;;;;;;9.03;6.40;;;10.80;99.90;;;;;;5025408;28;20200;-69
2023/05/07 06:09:40;;;;;;;7.57;6.07;;;10.80;99.90;;;;;;5025819;28;20263;-69
2023/05/07 06:12:06;;;;;;;6.23;5.40;;;10.60;99.90;;;;;;5027773;28;20226;-68
2023/05/07 06:14:31;;;;;;;9.23;6.53;;;10.70;99.90;;;;;;5025514;28;20251;-68
2023/05/07 06:16:57;;;;;;;6.67;6.07;;;10.80;99.90;;;;;;5027117;28;20215;-68
2023/05/07 06:19:23;;;;;;;8.30;6.27;;;10.90;99.90;;;;;;5025266;28;20186;-70
2023/05/07 06:21:50;;;;;;;6.13;5.07;;;10.80;99.90;;;;;;5025238;28;20418;-68
2023/05/07 06:24:15;;;;;;;7.00;5.80;;;10.80;99.90;;;;;;5030682;28;21172;-68
2023/05/07 06:26:41;;;;;;;6.73;6.13;;;10.90;99.90;;;;;;5025048;28;20517;-69
2023/05/07 06:29:06;;;;;;;7.47;5.20;;;10.70;99.90;;;;;;5030760;28;20190;-69
2023/05/07 06:31:32;;;;;;;13.97;6.47;;;10.60;99.90;;;;;;5027915;28;20192;-69
2023/05/07 06:33:58;;;;;;;6.90;5.77;;;10.60;99.90;;;;;;5030017;28;20733;-68
2023/05/07 06:36:24;;;;;;;9.13;6.67;;;10.80;99.90;;;;;;5030407;28;20227;-69
2023/05/07 06:38:50;;;;;;;9.47;6.47;;;10.90;99.90;;;;;;5029154;28;20450;-69
2023/05/07 06:41:15;;;;;;;6.23;5.63;;;10.80;99.90;;;;;;5030370;28;20419;-70
2023/05/07 06:43:41;;;;;;;6.97;5.77;;;10.60;99.90;;;;;;5024733;28;20716;-69
2023/05/07 06:46:07;;;;;;;6.20;5.40;;;10.50;99.90;;;;;;5023987;28;20305;-70
2023/05/07 06:48:32;;;;;;;6.47;5.97;;;10.80;99.90;;;;;;5024466;28;20668;-70
2023/05/07 06:50:58;;;;;;;7.43;6.53;;;11.00;99.90;;;;;;5024552;28;20202;-68
2023/05/07 06:53:24;;;;;;;5.13;4.63;;;11.10;99.90;;;;;;5030306;28;20176;-69
2023/05/07 06:55:49;;;;;;;7.10;5.50;;;11.20;99.90;;;;;;5024612;28;20205;-68
2023/05/07 06:58:15;;;;;;;5.50;5.00;;;11.50;99.90;;;;;;5031213;28;20414;-69
2023/05/07 07:00:41;;;;;;;5.20;4.80;;;11.70;99.90;;;;;;5028052;28;20612;-68
2023/05/07 07:03:07;;;;;;;5.03;4.50;;;11.90;99.90;;;;;;5029929;28;20595;-67
2023/05/07 07:05:32;;;;;;;5.73;4.70;;;11.90;99.90;;;;;;5026769;28;20287;-69
2023/05/07 07:07:58;;;;;;;5.10;4.60;;;12.00;99.90;;;;;;5023978;28;20417;-68
2023/05/07 07:10:24;;;;;;;5.57;5.10;;;12.70;99.90;;;;;;5021528;28;20548;-69
2023/05/07 07:12:49;;;;;;;5.17;4.67;;;13.50;99.90;;;;;;5024147;28;20257;-69
2023/05/07 07:15:15;;;;;;;3.50;3.20;;;13.90;99.90;;;;;;5024017;28;20177;-69
2023/05/07 07:17:41;;;;;;;4.47;4.07;;;14.50;99.90;;;;;;5021749;28;20242;-68
2023/05/07 07:20:07;;;;;;;3.90;3.50;;;14.30;99.90;;;;;;5028754;28;20921;-68
2023/05/07 07:22:33;;;;;;;4.40;4.07;;;14.90;99.90;;;;;;5020635;28;20188;-68
2023/05/07 07:24:59;;;;;;;3.70;3.40;;;16.10;99.90;;;;;;5027003;28;20443;-68
2023/05/07 07:27:25;;;;;;;3.70;3.07;;;16.20;99.90;;;;;;5021826;28;20560;-70
2023/05/07 07:29:50;;;;;;;3.20;2.70;;;16.70;99.90;;;;;;5031839;28;20471;-70
2023/05/07 07:32:16;;;;;;;2.80;2.60;;;17.40;99.90;;;;;;5024933;28;20197;-69
2023/05/07 07:34:41;;;;;;;3.20;2.77;;;17.70;99.90;;;;;;5004156;28;20176;-70
2023/05/07 07:37:07;;;;;;;4.90;2.90;;;18.10;99.90;;;;;;5026339;28;20308;-69
2023/05/07 07:39:33;;;;;;;2.80;2.60;;;18.10;99.90;;;;;;5020341;28;20186;-68
2023/05/07 07:41:59;;;;;;;3.67;2.70;;;18.30;99.90;;;;;;5027705;28;20531;-69
2023/05/07 07:44:24;;;;;;;5.50;2.90;;;18.60;99.90;;;;;;5021423;28;20610;-69
2023/05/07 07:46:50;;;;;;;3.23;2.93;;;18.40;99.90;;;;;;5031304;28;20268;-70
2023/05/07 07:49:18;;;;;;;3.07;2.77;;;18.20;99.90;;;;;;5021984;28;20193;-69
2023/05/07 07:51:44;;;;;;;3.07;2.87;;;18.10;99.90;;;;;;5028037;28;20202;-69
2023/05/07 07:54:10;;;;;;;2.80;2.60;;;17.50;99.90;;;;;;5026570;28;20848;-69
2023/05/07 07:56:35;;;;;;;3.33;3.13;;;17.90;99.90;;;;;;5020697;28;20431;-69
2023/05/07 07:59:01;;;;;;;3.90;2.90;;;17.70;99.90;;;;;;5028276;28;20523;-69
2023/05/07 08:01:28;;;;;;;2.70;2.50;;;17.60;99.90;;;;;;5020435;28;20179;-69
2023/05/07 08:03:53;;;;;;;3.43;2.80;;;17.50;99.90;;;;;;5027241;28;20220;-70
2023/05/07 08:06:19;;;;;;;2.73;2.50;;;16.80;99.90;;;;;;5021468;28;20556;-69
2023/05/07 08:08:45;;;;;;;4.07;2.90;;;16.80;99.90;;;;;;5024795;28;20948;-69
2023/05/07 08:11:10;;;;;;;2.63;2.40;;;16.80;99.90;;;;;;5029183;28;20201;-69
2023/05/07 08:13:37;;;;;;;4.10;2.70;;;17.10;99.90;;;;;;5024038;28;20567;-69
2023/05/07 08:16:04;;;;;;;4.67;2.50;;;16.90;99.90;;;;;;5021386;28;20223;-69
2023/05/07 08:18:29;;;;;;;2.73;2.53;;;17.20;99.90;;;;;;5023189;28;20442;-68
2023/05/07 08:20:55;;;;;;;2.60;2.40;;;16.80;99.90;;;;;;5025680;28;20412;-67
2023/05/07 08:23:21;;;;;;;2.43;2.23;;;16.80;99.90;;;;;;5022721;28;20324;-69
2023/05/07 08:25:48;;;;;;;2.63;2.20;;;16.90;99.90;;;;;;5024091;28;20201;-70
2023/05/07 08:28:13;;;;;;;3.37;2.73;;;17.40;99.90;;;;;;5020723;28;20507;-70
2023/05/07 08:30:39;;;;;;;2.70;2.50;;;17.40;99.90;;;;;;5025915;28;20523;-69
2023/05/07 08:33:04;;;;;;;3.70;2.70;;;18.10;99.90;;;;;;5019576;28;20207;-69
2023/05/07 08:35:30;;;;;;;2.43;2.20;;;17.80;99.90;;;;;;5030616;28;20201;-70
2023/05/07 08:37:56;;;;;;;2.57;2.23;;;17.50;99.90;;;;;;5022134;28;20257;-69
2023/05/07 08:40:29;;;;;;;2.37;2.17;;;17.90;99.90;;;;;;5021689;28;20185;-69
2023/05/07 08:42:56;;;;;;;2.50;2.30;;;17.40;99.90;;;;;;5025355;28;20182;-69
2023/05/07 08:45:22;;;;;;;2.97;2.67;;;17.80;99.90;;;;;;5028214;28;20424;-70
2023/05/07 08:47:53;;;;;;;3.13;2.60;;;18.20;99.90;;;;;;5025403;28;20765;-68
2023/05/07 08:50:21;;;;;;;3.30;2.70;;;17.60;99.90;;;;;;5028106;28;20411;-70
2023/05/07 08:52:47;;;;;;;2.57;2.37;;;17.20;99.90;;;;;;5030651;28;20463;-68
2023/05/07 08:55:13;;;;;;;4.03;2.80;;;17.80;99.90;;;;;;5020464;28;20778;-69
2023/05/07 08:57:38;;;;;;;3.07;2.60;;;17.60;99.90;;;;;;5022609;28;20425;-69
2023/05/07 09:00:06;;;;;;;2.87;2.67;;;17.20;99.90;;;;;;5022439;28;20412;-68
2023/05/07 09:02:32;;;;;;;3.30;2.30;;;17.40;99.90;;;;;;5022950;28;20194;-68
2023/05/07 09:04:58;;;;;;;2.90;2.60;;;17.90;99.90;;;;;;5023336;28;20416;-69
2023/05/07 09:07:25;;;;;;;2.83;2.60;;;18.00;99.90;;;;;;5027560;28;20873;-69
2023/05/07 09:09:51;;;;;;;3.20;2.87;;;18.50;99.90;;;;;;5030439;28;20308;-69
2023/05/07 09:12:18;;;;;;;2.90;2.27;;;18.80;99.90;;;;;;5025624;28;20540;-68
2023/05/07 09:14:45;;;;;;;2.57;2.30;;;18.80;99.90;;;;;;5022596;28;20190;-70
2023/05/07 09:17:11;;;;;;;3.37;2.13;;;18.80;99.90;;;;;;5023023;28;20781;-70
2023/05/07 09:19:37;;;;;;;1.80;1.70;;;19.30;99.90;;;;;;5021655;28;20419;-69
2023/05/07 09:22:05;;;;;;;2.97;2.70;;;18.90;99.90;;;;;;5027112;28;20243;-71
2023/05/07 09:24:34;;;;;;;3.40;2.40;;;18.60;99.90;;;;;;5020161;28;20197;-68
2023/05/07 09:27:02;;;;;;;2.73;2.43;;;18.00;99.90;;;;;;5022293;28;20863;-69
2023/05/07 09:29:29;;;;;;;3.30;2.77;;;17.20;99.90;;;;;;5022501;28;20541;-69
2023/05/07 09:31:55;;;;;;;4.90;2.67;;;16.70;99.90;;;;;;5025240;28;20458;-69
2023/05/07 09:34:22;;;;;;;3.13;2.50;;;16.80;99.90;;;;;;5022030;28;20439;-68
2023/05/07 09:36:47;;;;;;;2.40;2.20;;;17.40;99.90;;;;;;5026647;28;20523;-69
2023/05/07 09:39:13;;;;;;;5.30;2.40;;;17.60;99.90;;;;;;5029100;28;20829;-69
2023/05/07 09:41:49;;;;;;;4.20;2.47;;;17.90;99.90;;;;;;5027049;28;20854;-69
2023/05/07 09:44:15;;;;;;;3.30;2.80;;;17.70;99.90;;;;;;5024092;28;20647;-69
2023/05/07 09:46:44;;;;;;;4.07;3.57;;;17.60;99.90;;;;;;5032665;28;20513;-69
2023/05/07 09:49:19;;;;;;;8.73;2.77;;;17.50;99.90;;;;;;5024857;28;20421;-69
2023/05/07 09:51:50;;;;;;;2.60;2.40;;;16.90;99.90;;;;;;5022212;28;20456;-69
2023/05/07 09:54:16;;;;;;;3.73;2.90;;;16.40;99.90;;;;;;5028470;28;20443;-69
2023/05/07 09:56:45;;;;;;;3.90;2.70;;;16.50;99.90;;;;;;5022196;28;20591;-69
2023/05/07 09:59:15;;;;;;;3.17;2.63;;;15.90;99.90;;;;;;5029426;28;20428;-69
2023/05/07 10:01:42;;;;;;;4.00;2.40;;;15.60;99.90;;;;;;5025087;28;20463;-69
2023/05/07 10:04:08;;;;;;;3.10;2.27;;;15.50;99.90;;;;;;5033036;28;20422;-70
2023/05/07 10:06:35;;;;;;;2.97;1.90;;;15.50;99.90;;;;;;5025454;28;20447;-69
2023/05/07 10:09:02;;;;;;;2.80;2.33;;;15.30;99.90;;;;;;5026312;28;20415;-69
2023/05/07 10:11:28;;;;;;;1.80;1.40;;;15.30;99.90;;;;;;5028307;28;20447;-68
2023/05/07 10:13:54;;;;;;;1.70;1.57;;;15.30;99.90;;;;;;5027070;28;20412;-69
2023/05/07 10:16:21;;;;;;;2.63;2.07;;;15.40;99.90;;;;;;5026720;28;20459;-68
2023/05/07 10:18:48;;;;;;;3.37;2.10;;;15.40;99.90;;;;;;5025288;28;20426;-69
2023/05/07 10:21:18;;;;;;;2.50;1.70;;;15.70;99.90;;;;;;5022866;28;20918;-70
2023/05/07 10:23:50;;;;;;;1.70;1.60;;;15.90;99.90;;;;;;5032610;28;20411;-70
2023/05/07 10:26:18;;;;;;;1.50;1.40;;;16.40;99.90;;;;;;5023959;28;20438;-69
2023/05/07 10:28:54;;;;;;;1.90;1.80;;;16.70;99.90;;;;;;5031302;28;20969;-69
2023/05/07 10:31:38;;;;;;;1.30;1.20;;;16.90;99.90;;;;;;5024538;28;20535;-70
2023/05/07 10:34:10;;;;;;;2.97;1.90;;;16.40;99.90;;;;;;5024932;28;20399;-69
2023/05/07 10:36:36;;;;;;;1.53;1.43;;;16.30;99.90;;;;;;5018565;28;20872;-69
2023/05/07 10:39:02;;;;;;;3.70;1.57;;;15.60;99.90;;;;;;5024975;28;20822;-68
2023/05/07 10:41:28;;;;;;;2.73;2.53;;;15.60;99.90;;;;;;5023405;28;20451;-69
2023/05/07 10:43:53;;;;;;;1.70;1.60;;;15.90;99.90;;;;;;5024826;28;20469;-69
2023/05/07 10:46:20;;;;;;;2.03;1.60;;;16.20;99.90;;;;;;5022764;28;20291;-68
2023/05/07 10:49:02;;;;;;;2.97;1.80;;;16.20;99.90;;;;;;5027760;28;20178;-69
2023/05/07 10:51:32;;;;;;;2.37;1.40;;;15.80;99.90;;;;;;5021278;28;20564;-69
2023/05/07 10:54:10;;;;;;;3.20;2.67;;;15.50;99.90;;;;;;5026754;28;20742;-69
2023/05/07 10:56:43;;;;;;;2.07;1.73;;;15.60;99.90;;;;;;5018113;28;20463;-69
2023/05/07 10:59:20;;;;;;;1.80;1.70;;;15.70;99.90;;;;;;5028342;28;20897;-70
2023/05/07 11:02:06;;;;;;;2.37;2.17;;;15.80;99.90;;;;;;5021064;28;20487;-69
2023/05/07 11:04:34;;;;;;;2.50;2.20;;;15.60;99.90;;;;;;5013670;28;20486;-69
2023/05/07 11:07:20;;;;;;;1.70;1.60;;;15.80;99.90;;;;;;5025321;28;20951;-68
2023/05/07 11:10:03;;;;;;;1.60;1.50;;;15.80;99.90;;;;;;5020208;28;20423;-70
2023/05/07 11:12:38;;;;;;;2.53;2.17;;;15.80;99.90;;;;;;5019890;28;21016;-69
2023/05/07 11:15:08;;;;;;;2.10;1.90;;;15.80;99.90;;;;;;5023940;28;20398;-68
2023/05/07 11:17:55;;;;;;;4.73;2.03;;;15.50;99.90;;;;;;5021983;28;20410;-69
2023/05/07 11:20:41;;;;;;;4.20;1.80;;;15.50;99.90;;;;;;5027989;28;20411;-69
2023/05/07 11:23:06;;;;;;;3.60;2.00;;;15.60;99.90;;;;;;5017667;28;20407;-70
2023/05/07 11:25:32;;;;;;;2.60;2.40;;;15.60;99.90;;;;;;5026943;28;20442;-69
2023/05/07 11:28:10;;;;;;;2.40;1.67;;;15.30;99.90;;;;;;5029329;28;20256;-69
2023/05/07 11:30:35;;;;;;;2.60;1.93;;;15.20;99.90;;;;;;5027962;28;20185;-68
2023/05/07 11:33:02;;;;;;;2.60;2.13;;;15.30;99.90;;;;;;5020419;28;20594;-69
2023/05/07 11:35:27;;;;;;;1.90;1.73;;;15.40;99.90;;;;;;5023099;28;20678;-70
2023/05/07 11:38:00;;;;;;;1.70;1.60;;;15.30;99.90;;;;;;5025258;28;20408;-69
2023/05/07 11:40:25;;;;;;;2.17;1.97;;;15.60;99.90;;;;;;5023280;28;20464;-69
2023/05/07 11:42:51;;;;;;;2.00;1.80;;;15.90;99.90;;;;;;5024335;28;20420;-69
2023/05/07 11:45:25;;;;;;;2.60;1.30;;;15.80;99.90;;;;;;5021678;28;20260;-69
2023/05/07 11:47:50;;;;;;;3.40;2.00;;;15.70;99.90;;;;;;5025049;28;20189;-69
2023/05/07 11:50:16;;;;;;;1.97;1.70;;;15.50;99.90;;;;;;5021764;28;20784;-70
2023/05/07 11:52:51;;;;;;;1.93;1.73;;;15.70;99.90;;;;;;5030961;28;20234;-69
2023/05/07 11:55:18;;;;;;;1.67;1.57;;;15.80;99.90;;;;;;5019983;28;20170;-69
2023/05/07 11:57:44;;;;;;;2.50;2.30;;;16.40;99.90;;;;;;5023061;28;20409;-69
2023/05/07 12:00:11;;;;;;;2.60;1.77;;;16.80;99.90;;;;;;5027001;28;20513;-69
2023/05/07 12:02:36;;;;;;;1.60;1.50;;;16.80;99.90;;;;;;5023660;28;20411;-69
2023/05/07 12:05:02;;;;;;;1.67;1.57;;;16.70;99.90;;;;;;5023718;28;20977;-70
2023/05/07 12:07:28;;;;;;;2.50;1.80;;;16.90;99.90;;;;;;5022808;28;20180;-69
2023/05/07 12:09:53;;;;;;;2.83;1.60;;;16.80;99.90;;;;;;5023076;28;20204;-70
2023/05/07 12:12:19;;;;;;;1.77;1.63;;;16.90;99.90;;;;;;5021696;28;20201;-70
2023/05/07 12:14:45;;;;;;;1.80;1.70;;;17.00;99.90;;;;;;5030086;28;20177;-69
2023/05/07 12:17:13;;;;;;;2.10;1.73;;;16.80;99.90;;;;;;5024096;28;20243;-70
2023/05/07 12:19:40;;;;;;;1.60;1.50;;;16.90;99.90;;;;;;5029279;28;20806;-70
2023/05/07 12:22:08;;;;;;;2.23;2.00;;;16.50;99.90;;;;;;5022993;28;20940;-69
2023/05/07 12:24:47;;;;;;;2.43;1.70;;;16.50;99.90;;;;;;5023502;28;20502;-69
2023/05/07 12:27:13;;;;;;;1.87;1.77;;;16.50;99.90;;;;;;5025441;28;20452;-71
2023/05/07 12:29:40;;;;;;;3.87;1.80;;;16.50;99.90;;;;;;5024488;28;20557;-69
2023/05/07 12:32:12;;;;;;;1.63;1.50;;;16.30;99.90;;;;;;5023066;28;20682;-69
2023/05/07 12:34:39;;;;;;;1.57;1.47;;;16.30;99.90;;;;;;5024737;28;20400;-71
2023/05/07 12:37:05;;;;;;;1.37;1.27;;;16.20;99.90;;;;;;5025644;28;20585;-67
2023/05/07 12:39:32;;;;;;;2.20;1.10;;;16.40;99.90;;;;;;5021897;28;20499;-68
2023/05/07 12:41:59;;;;;;;2.47;2.03;;;16.60;99.90;;;;;;5031148;28;20266;-69
2023/05/07 12:44:35;;;;;;;2.10;1.70;;;16.70;99.90;;;;;;5019967;28;20927;-69
2023/05/07 12:47:03;;;;;;;2.60;1.47;;;17.10;99.90;;;;;;5026702;28;20784;-69